sensor_id;sensor_type;location;lat;lon;timestamp;P1;durP1;ratioP1;P2;durP2;ratioP2
36923;SDS011;22841;50.252;18.688;2023-02-08T03:21:17;119.60;;;51.53;;
36923;SDS011;22841;50.252;18.688;2023-02-08T03:27:21;117.47;;;50.13;;
36923;SDS011;22841;50.252;18.688;2023-02-08T03:30:17;111.93;;;49.72;;
36923;SDS011;22841;50.252;18.688;2023-02-08T03:33:11;108.88;;;47.38;;
36923;SDS011;22841;50.252;18.688;2023-02-08T03:36:46;117.18;;;49.10;;
36923;SDS011;22841;50.252;18.688;2023-02-08T03:39:17;119.63;;;49.90;;
36923;SDS011;22841;50.252;18.688;2023-02-08T03:41:48;111.18;;;49.70;;
36923;SDS011;22841;50.252;18.688;2023-02-08T03:44:37;122.07;;;48.70;;
36923;SDS011;22841;50.252;18.688;2023-02-08T03:54:17;120.90;;;47.92;;
36923;SDS011;22841;50.252;18.688;2023-02-08T04:00:10;118.03;;;50.15;;
36923;SDS011;22841;50.252;18.688;2023-02-08T04:02:53;131.13;;;53.67;;
36923;SDS011;22841;50.252;18.688;2023-02-08T04:05:21;126.32;;;54.03;;
36923;SDS011;22841;50.252;18.688;2023-02-08T04:07:48;137.95;;;57.20;;
36923;SDS011;22841;50.252;18.688;2023-02-08T04:10:15;141.02;;;60.88;;
36923;SDS011;22841;50.252;18.688;2023-02-08T04:12:42;140.27;;;58.58;;
36923;SDS011;22841;50.252;18.688;2023-02-08T04:22:32;140.23;;;57.60;;
36923;SDS011;22841;50.252;18.688;2023-02-08T04:24:59;144.60;;;59.15;;
36923;SDS011;22841;50.252;18.688;2023-02-08T04:27:25;150.00;;;58.10;;
36923;SDS011;22841;50.252;18.688;2023-02-08T04:29:51;135.73;;;61.35;;
36923;SDS011;22841;50.252;18.688;2023-02-08T04:32:18;142.90;;;60.78;;
36923;SDS011;22841;50.252;18.688;2023-02-08T10:35:07;55.30;;;24.40;;
36923;SDS011;22841;50.252;18.688;2023-02-08T10:37:40;57.45;;;24.65;;
36923;SDS011;22841;50.252;18.688;2023-02-08T10:42:41;52.35;;;21.00;;
36923;SDS011;22841;50.252;18.688;2023-02-08T10:45:21;54.17;;;22.83;;
36923;SDS011;22841;50.252;18.688;2023-02-08T10:47:53;51.20;;;21.85;;
36923;SDS011;22841;50.252;18.688;2023-02-08T10:53:12;46.13;;;20.23;;
36923;SDS011;22841;50.252;18.688;2023-02-08T10:55:45;49.08;;;20.67;;
36923;SDS011;22841;50.252;18.688;2023-02-08T10:58:23;42.83;;;19.80;;
36923;SDS011;22841;50.252;18.688;2023-02-08T11:00:50;42.38;;;18.75;;
36923;SDS011;22841;50.252;18.688;2023-02-08T11:03:22;45.10;;;19.35;;
36923;SDS011;22841;50.252;18.688;2023-02-08T11:08:55;48.20;;;22.30;;
36923;SDS011;22841;50.252;18.688;2023-02-08T11:11:23;48.45;;;22.08;;
36923;SDS011;22841;50.252;18.688;2023-02-08T11:13:51;49.17;;;21.50;;
36923;SDS011;22841;50.252;18.688;2023-02-08T11:16:23;46.15;;;21.90;;
36923;SDS011;22841;50.252;18.688;2023-02-08T11:18:55;48.17;;;21.02;;
36923;SDS011;22841;50.252;18.688;2023-02-08T11:21:30;53.53;;;22.02;;
36923;SDS011;22841;50.252;18.688;2023-02-08T11:26:40;51.92;;;20.38;;
36923;SDS011;22841;50.252;18.688;2023-02-08T11:29:23;51.65;;;21.92;;
36923;SDS011;22841;50.252;18.688;2023-02-08T11:43:05;46.97;;;19.77;;
36923;SDS011;22841;50.252;18.688;2023-02-08T11:55:25;45.70;;;17.60;;
36923;SDS011;22841;50.252;18.688;2023-02-08T11:58:00;39.35;;;16.70;;
36923;SDS011;22841;50.252;18.688;2023-02-08T12:00:56;29.60;;;14.23;;
36923;SDS011;22841;50.252;18.688;2023-02-08T12:20:03;35.80;;;14.15;;
36923;SDS011;22841;50.252;18.688;2023-02-08T12:22:50;30.30;;;14.38;;
36923;SDS011;22841;50.252;18.688;2023-02-08T12:26:07;38.80;;;16.17;;
36923;SDS011;22841;50.252;18.688;2023-02-08T12:29:05;31.58;;;13.98;;
36923;SDS011;22841;50.252;18.688;2023-02-08T13:36:16;32.10;;;15.68;;
36923;SDS011;22841;50.252;18.688;2023-02-08T13:38:46;34.95;;;13.23;;
36923;SDS011;22841;50.252;18.688;2023-02-08T13:41:14;29.55;;;12.57;;
36923;SDS011;22841;50.252;18.688;2023-02-08T13:46:21;25.08;;;12.73;;
36923;SDS011;22841;50.252;18.688;2023-02-08T13:48:50;25.52;;;13.07;;
36923;SDS011;22841;50.252;18.688;2023-02-08T14:02:28;32.60;;;15.27;;
36923;SDS011;22841;50.252;18.688;2023-02-08T14:05:06;35.28;;;13.07;;
36923;SDS011;22841;50.252;18.688;2023-02-08T14:07:52;36.95;;;13.90;;
36923;SDS011;22841;50.252;18.688;2023-02-08T14:10:27;32.58;;;15.13;;
36923;SDS011;22841;50.252;18.688;2023-02-08T14:13:03;31.83;;;14.15;;
36923;SDS011;22841;50.252;18.688;2023-02-08T14:15:37;30.23;;;13.68;;
36923;SDS011;22841;50.252;18.688;2023-02-08T14:18:14;40.53;;;14.90;;
36923;SDS011;22841;50.252;18.688;2023-02-08T14:20:54;37.22;;;16.48;;
36923;SDS011;22841;50.252;18.688;2023-02-08T14:23:26;33.60;;;16.38;;
36923;SDS011;22841;50.252;18.688;2023-02-08T14:25:56;40.63;;;15.57;;
36923;SDS011;22841;50.252;18.688;2023-02-08T14:28:34;45.92;;;17.15;;
36923;SDS011;22841;50.252;18.688;2023-02-08T14:31:05;41.45;;;18.40;;
36923;SDS011;22841;50.252;18.688;2023-02-08T14:33:41;33.65;;;17.17;;
36923;SDS011;22841;50.252;18.688;2023-02-08T14:36:29;37.92;;;16.80;;
36923;SDS011;22841;50.252;18.688;2023-02-08T14:39:06;40.58;;;17.13;;
36923;SDS011;22841;50.252;18.688;2023-02-08T14:41:55;34.42;;;16.42;;
36923;SDS011;22841;50.252;18.688;2023-02-08T14:44:43;33.78;;;16.98;;
36923;SDS011;22841;50.252;18.688;2023-02-08T14:49:54;37.42;;;17.42;;
36923;SDS011;22841;50.252;18.688;2023-02-08T14:52:31;45.58;;;18.48;;
36923;SDS011;22841;50.252;18.688;2023-02-08T14:55:01;42.22;;;17.45;;
36923;SDS011;22841;50.252;18.688;2023-02-08T14:57:38;41.83;;;19.15;;
36923;SDS011;22841;50.252;18.688;2023-02-08T15:00:16;43.97;;;19.15;;
36923;SDS011;22841;50.252;18.688;2023-02-08T15:02:49;48.95;;;19.55;;
36923;SDS011;22841;50.252;18.688;2023-02-08T19:04:57;288.77;;;104.22;;
36923;SDS011;22841;50.252;18.688;2023-02-08T19:28:11;233.65;;;85.80;;
36923;SDS011;22841;50.252;18.688;2023-02-08T19:30:37;214.45;;;80.95;;
36923;SDS011;22841;50.252;18.688;2023-02-08T19:33:03;206.00;;;80.45;;
36923;SDS011;22841;50.252;18.688;2023-02-08T19:59:20;201.80;;;75.93;;
36923;SDS011;22841;50.252;18.688;2023-02-08T20:06:53;241.60;;;86.95;;
36923;SDS011;22841;50.252;18.688;2023-02-08T20:14:31;250.10;;;91.70;;
36923;SDS011;22841;50.252;18.688;2023-02-08T20:16:59;285.83;;;97.82;;
36923;SDS011;22841;50.252;18.688;2023-02-08T20:45:26;276.88;;;104.20;;
36923;SDS011;22841;50.252;18.688;2023-02-08T21:00:51;201.77;;;76.97;;
36923;SDS011;22841;50.252;18.688;2023-02-08T21:03:18;206.80;;;79.88;;
36923;SDS011;22841;50.252;18.688;2023-02-08T21:05:44;204.30;;;77.63;;
36923;SDS011;22841;50.252;18.688;2023-02-08T21:08:10;189.32;;;75.03;;
36923;SDS011;22841;50.252;18.688;2023-02-08T21:15:48;213.73;;;77.63;;
36923;SDS011;22841;50.252;18.688;2023-02-08T21:18:15;228.52;;;84.53;;
36923;SDS011;22841;50.252;18.688;2023-02-08T21:20:41;216.60;;;77.30;;
36923;SDS011;22841;50.252;18.688;2023-02-08T21:23:07;217.27;;;81.85;;
36923;SDS011;22841;50.252;18.688;2023-02-08T21:25:33;228.90;;;86.40;;
36923;SDS011;22841;50.252;18.688;2023-02-08T21:28:09;220.02;;;81.72;;
36923;SDS011;22841;50.252;18.688;2023-02-08T21:30:36;207.63;;;78.10;;
36923;SDS011;22841;50.252;18.688;2023-02-08T21:33:03;214.68;;;79.25;;
36923;SDS011;22841;50.252;18.688;2023-02-08T21:35:29;208.70;;;80.90;;
36923;SDS011;22841;50.252;18.688;2023-02-08T21:37:55;216.60;;;79.85;;
36923;SDS011;22841;50.252;18.688;2023-02-08T21:40:21;232.40;;;82.97;;
36923;SDS011;22841;50.252;18.688;2023-02-08T21:42:47;222.68;;;82.28;;
36923;SDS011;22841;50.252;18.688;2023-02-08T21:45:13;217.00;;;81.75;;
36923;SDS011;22841;50.252;18.688;2023-02-08T21:47:39;240.30;;;83.40;;
36923;SDS011;22841;50.252;18.688;2023-02-08T21:50:06;215.52;;;81.10;;
36923;SDS011;22841;50.252;18.688;2023-02-08T21:52:50;220.20;;;82.40;;
36923;SDS011;22841;50.252;18.688;2023-02-08T21:55:35;214.73;;;79.50;;
36923;SDS011;22841;50.252;18.688;2023-02-08T21:58:01;215.25;;;81.82;;
36923;SDS011;22841;50.252;18.688;2023-02-08T22:00:27;204.82;;;78.22;;
36923;SDS011;22841;50.252;18.688;2023-02-08T22:02:53;205.48;;;78.05;;
36923;SDS011;22841;50.252;18.688;2023-02-08T22:05:19;204.15;;;78.82;;
36923;SDS011;22841;50.252;18.688;2023-02-08T22:08:04;253.45;;;92.20;;
36923;SDS011;22841;50.252;18.688;2023-02-08T22:10:30;285.50;;;101.93;;
36923;SDS011;22841;50.252;18.688;2023-02-08T22:12:57;302.15;;;107.05;;
36923;SDS011;22841;50.252;18.688;2023-02-08T22:15:24;352.35;;;116.47;;
36923;SDS011;22841;50.252;18.688;2023-02-08T22:17:52;320.48;;;116.65;;
36923;SDS011;22841;50.252;18.688;2023-02-08T22:20:19;314.63;;;113.03;;
36923;SDS011;22841;50.252;18.688;2023-02-08T22:22:45;336.42;;;113.35;;
36923;SDS011;22841;50.252;18.688;2023-02-08T22:25:12;366.65;;;129.23;;
36923;SDS011;22841;50.252;18.688;2023-02-08T22:27:38;357.05;;;127.57;;
36923;SDS011;22841;50.252;18.688;2023-02-08T22:32:42;364.55;;;125.88;;
36923;SDS011;22841;50.252;18.688;2023-02-08T22:35:10;347.88;;;122.72;;
36923;SDS011;22841;50.252;18.688;2023-02-08T22:37:37;321.15;;;118.75;;
36923;SDS011;22841;50.252;18.688;2023-02-08T22:40:04;330.25;;;113.20;;
36923;SDS011;22841;50.252;18.688;2023-02-08T22:42:31;316.30;;;112.85;;
36923;SDS011;22841;50.252;18.688;2023-02-08T22:44:57;296.65;;;105.78;;
36923;SDS011;22841;50.252;18.688;2023-02-08T22:47:24;283.02;;;101.25;;
36923;SDS011;22841;50.252;18.688;2023-02-08T22:49:50;305.75;;;104.68;;
36923;SDS011;22841;50.252;18.688;2023-02-08T22:52:16;257.45;;;94.43;;
36923;SDS011;22841;50.252;18.688;2023-02-08T22:54:43;247.27;;;90.13;;
36923;SDS011;22841;50.252;18.688;2023-02-08T22:57:09;273.30;;;95.78;;
36923;SDS011;22841;50.252;18.688;2023-02-08T22:59:36;297.73;;;100.95;;
36923;SDS011;22841;50.252;18.688;2023-02-08T23:02:03;307.90;;;100.07;;
36923;SDS011;22841;50.252;18.688;2023-02-08T23:04:30;274.17;;;93.22;;
36923;SDS011;22841;50.252;18.688;2023-02-08T23:06:57;260.17;;;92.03;;
36923;SDS011;22841;50.252;18.688;2023-02-08T23:09:24;238.50;;;84.93;;
36923;SDS011;22841;50.252;18.688;2023-02-08T23:11:50;212.20;;;76.75;;
36923;SDS011;22841;50.252;18.688;2023-02-08T23:14:17;233.35;;;85.22;;
36923;SDS011;22841;50.252;18.688;2023-02-08T23:16:43;205.30;;;77.18;;
36923;SDS011;22841;50.252;18.688;2023-02-08T23:19:11;218.35;;;77.80;;
36923;SDS011;22841;50.252;18.688;2023-02-08T23:21:39;217.98;;;78.38;;
36923;SDS011;22841;50.252;18.688;2023-02-08T23:24:05;202.45;;;75.40;;
36923;SDS011;22841;50.252;18.688;2023-02-08T23:26:32;213.50;;;77.07;;
36923;SDS011;22841;50.252;18.688;2023-02-08T23:28:58;212.05;;;78.07;;
36923;SDS011;22841;50.252;18.688;2023-02-08T23:31:24;233.80;;;80.05;;
36923;SDS011;22841;50.252;18.688;2023-02-08T23:33:50;220.80;;;75.75;;
36923;SDS011;22841;50.252;18.688;2023-02-08T23:36:17;206.18;;;70.82;;
36923;SDS011;22841;50.252;18.688;2023-02-08T23:38:46;184.77;;;68.55;;
36923;SDS011;22841;50.252;18.688;2023-02-08T23:41:17;184.70;;;69.10;;
36923;SDS011;22841;50.252;18.688;2023-02-08T23:43:45;187.15;;;71.35;;
36923;SDS011;22841;50.252;18.688;2023-02-08T23:46:15;213.52;;;73.07;;
36923;SDS011;22841;50.252;18.688;2023-02-08T23:48:42;194.98;;;72.22;;
36923;SDS011;22841;50.252;18.688;2023-02-08T23:51:09;186.88;;;68.93;;
36923;SDS011;22841;50.252;18.688;2023-02-08T23:53:35;198.63;;;71.43;;
36923;SDS011;22841;50.252;18.688;2023-02-08T23:58:34;201.40;;;72.78;;
